sensor_id;sensor_type;location;lat;lon;timestamp;P1;durP1;ratioP1;P2;durP2;ratioP2
870;SDS011;422;51.280;7.236;2024-02-21T00:00:42;29.57;;;11.97;;
870;SDS011;422;51.280;7.236;2024-02-21T00:03:09;24.47;;;12.50;;
870;SDS011;422;51.280;7.236;2024-02-21T00:05:37;20.53;;;12.43;;
870;SDS011;422;51.280;7.236;2024-02-21T00:08:05;19.50;;;12.50;;
870;SDS011;422;51.280;7.236;2024-02-21T00:10:34;20.33;;;12.30;;
870;SDS011;422;51.280;7.236;2024-02-21T00:13:01;21.83;;;12.27;;
870;SDS011;422;51.280;7.236;2024-02-21T00:15:28;20.27;;;12.20;;
870;SDS011;422;51.280;7.236;2024-02-21T00:17:56;17.47;;;10.90;;
870;SDS011;422;51.280;7.236;2024-02-21T00:20:23;22.97;;;13.20;;
870;SDS011;422;51.280;7.236;2024-02-21T00:22:51;22.60;;;13.07;;
870;SDS011;422;51.280;7.236;2024-02-21T00:25:20;32.10;;;12.87;;
870;SDS011;422;51.280;7.236;2024-02-21T00:27:49;26.20;;;13.07;;
870;SDS011;422;51.280;7.236;2024-02-21T00:30:16;22.57;;;13.27;;
870;SDS011;422;51.280;7.236;2024-02-21T00:32:44;21.50;;;11.67;;
870;SDS011;422;51.280;7.236;2024-02-21T00:35:11;24.63;;;12.67;;
870;SDS011;422;51.280;7.236;2024-02-21T00:37:38;22.50;;;12.67;;
870;SDS011;422;51.280;7.236;2024-02-21T00:40:06;20.83;;;12.87;;
870;SDS011;422;51.280;7.236;2024-02-21T00:42:34;24.30;;;13.63;;
870;SDS011;422;51.280;7.236;2024-02-21T00:45:03;19.70;;;11.67;;
870;SDS011;422;51.280;7.236;2024-02-21T00:47:31;21.77;;;12.03;;
870;SDS011;422;51.280;7.236;2024-02-21T00:49:59;20.47;;;11.70;;
870;SDS011;422;51.280;7.236;2024-02-21T00:52:26;23.80;;;12.57;;
870;SDS011;422;51.280;7.236;2024-02-21T00:54:54;23.93;;;12.40;;
870;SDS011;422;51.280;7.236;2024-02-21T00:57:21;20.90;;;11.90;;
870;SDS011;422;51.280;7.236;2024-02-21T00:59:49;26.97;;;12.07;;
870;SDS011;422;51.280;7.236;2024-02-21T01:02:17;22.03;;;12.80;;
870;SDS011;422;51.280;7.236;2024-02-21T01:04:45;25.10;;;12.93;;
870;SDS011;422;51.280;7.236;2024-02-21T01:07:12;23.07;;;13.10;;
870;SDS011;422;51.280;7.236;2024-02-21T01:09:39;20.67;;;13.50;;
870;SDS011;422;51.280;7.236;2024-02-21T01:12:07;20.70;;;12.40;;
870;SDS011;422;51.280;7.236;2024-02-21T01:14:34;21.97;;;13.97;;
870;SDS011;422;51.280;7.236;2024-02-21T01:17:01;29.97;;;12.50;;
870;SDS011;422;51.280;7.236;2024-02-21T01:19:32;18.00;;;12.30;;
870;SDS011;422;51.280;7.236;2024-02-21T01:22:00;16.53;;;12.67;;
870;SDS011;422;51.280;7.236;2024-02-21T01:24:27;24.10;;;13.33;;
870;SDS011;422;51.280;7.236;2024-02-21T01:26:54;23.03;;;12.90;;
870;SDS011;422;51.280;7.236;2024-02-21T01:29:21;24.77;;;12.50;;
870;SDS011;422;51.280;7.236;2024-02-21T01:31:49;20.87;;;12.57;;
870;SDS011;422;51.280;7.236;2024-02-21T01:34:16;21.27;;;13.00;;
870;SDS011;422;51.280;7.236;2024-02-21T01:36:45;21.50;;;12.10;;
870;SDS011;422;51.280;7.236;2024-02-21T01:39:12;22.23;;;12.10;;
870;SDS011;422;51.280;7.236;2024-02-21T01:41:39;24.37;;;13.03;;
870;SDS011;422;51.280;7.236;2024-02-21T01:44:07;25.33;;;13.47;;
870;SDS011;422;51.280;7.236;2024-02-21T01:46:34;23.47;;;11.93;;
870;SDS011;422;51.280;7.236;2024-02-21T01:49:01;21.47;;;12.50;;
870;SDS011;422;51.280;7.236;2024-02-21T01:51:30;21.40;;;12.70;;
870;SDS011;422;51.280;7.236;2024-02-21T01:53:59;21.30;;;11.83;;
870;SDS011;422;51.280;7.236;2024-02-21T01:56:26;21.00;;;12.57;;
870;SDS011;422;51.280;7.236;2024-02-21T01:58:54;23.37;;;12.57;;
870;SDS011;422;51.280;7.236;2024-02-21T02:01:22;27.57;;;14.60;;
870;SDS011;422;51.280;7.236;2024-02-21T02:03:49;22.23;;;11.60;;
870;SDS011;422;51.280;7.236;2024-02-21T02:06:18;20.77;;;11.67;;
870;SDS011;422;51.280;7.236;2024-02-21T02:08:45;29.97;;;13.40;;
870;SDS011;422;51.280;7.236;2024-02-21T02:11:14;28.73;;;13.87;;
870;SDS011;422;51.280;7.236;2024-02-21T02:13:42;21.23;;;12.17;;
870;SDS011;422;51.280;7.236;2024-02-21T02:16:08;21.60;;;11.67;;
870;SDS011;422;51.280;7.236;2024-02-21T02:18:35;24.47;;;12.60;;
870;SDS011;422;51.280;7.236;2024-02-21T02:21:03;21.00;;;12.23;;
870;SDS011;422;51.280;7.236;2024-02-21T02:23:34;19.37;;;12.33;;
870;SDS011;422;51.280;7.236;2024-02-21T02:26:02;22.47;;;14.57;;
870;SDS011;422;51.280;7.236;2024-02-21T02:28:30;21.90;;;12.10;;
870;SDS011;422;51.280;7.236;2024-02-21T02:30:57;17.27;;;12.17;;
870;SDS011;422;51.280;7.236;2024-02-21T02:33:25;21.87;;;13.13;;
870;SDS011;422;51.280;7.236;2024-02-21T02:35:52;20.17;;;12.90;;
870;SDS011;422;51.280;7.236;2024-02-21T02:38:23;19.80;;;11.70;;
870;SDS011;422;51.280;7.236;2024-02-21T02:40:52;23.53;;;12.70;;
870;SDS011;422;51.280;7.236;2024-02-21T02:43:19;22.33;;;11.53;;
870;SDS011;422;51.280;7.236;2024-02-21T02:45:47;27.67;;;13.20;;
870;SDS011;422;51.280;7.236;2024-02-21T02:48:14;20.47;;;12.03;;
870;SDS011;422;51.280;7.236;2024-02-21T02:50:41;21.27;;;12.10;;
870;SDS011;422;51.280;7.236;2024-02-21T02:53:08;19.17;;;11.63;;
870;SDS011;422;51.280;7.236;2024-02-21T02:55:35;21.10;;;12.10;;
870;SDS011;422;51.280;7.236;2024-02-21T02:58:04;27.77;;;12.20;;
870;SDS011;422;51.280;7.236;2024-02-21T03:00:31;23.53;;;12.03;;
870;SDS011;422;51.280;7.236;2024-02-21T03:03:01;20.90;;;11.57;;
870;SDS011;422;51.280;7.236;2024-02-21T03:05:29;24.80;;;11.93;;
870;SDS011;422;51.280;7.236;2024-02-21T03:07:56;21.40;;;11.17;;
870;SDS011;422;51.280;7.236;2024-02-21T03:10:24;23.63;;;11.20;;
870;SDS011;422;51.280;7.236;2024-02-21T03:12:51;15.67;;;10.60;;
870;SDS011;422;51.280;7.236;2024-02-21T03:15:20;20.63;;;12.03;;
870;SDS011;422;51.280;7.236;2024-02-21T03:17:48;19.30;;;10.83;;
870;SDS011;422;51.280;7.236;2024-02-21T03:20:15;16.33;;;10.40;;
870;SDS011;422;51.280;7.236;2024-02-21T03:22:42;20.70;;;11.80;;
870;SDS011;422;51.280;7.236;2024-02-21T03:25:09;25.77;;;12.10;;
870;SDS011;422;51.280;7.236;2024-02-21T03:27:37;14.90;;;10.73;;
870;SDS011;422;51.280;7.236;2024-02-21T03:30:05;23.07;;;11.13;;
870;SDS011;422;51.280;7.236;2024-02-21T03:32:35;24.20;;;11.37;;
870;SDS011;422;51.280;7.236;2024-02-21T03:35:04;20.90;;;10.27;;
870;SDS011;422;51.280;7.236;2024-02-21T03:37:31;26.70;;;12.23;;
870;SDS011;422;51.280;7.236;2024-02-21T03:39:59;19.67;;;11.93;;
870;SDS011;422;51.280;7.236;2024-02-21T03:42:27;18.00;;;11.70;;
870;SDS011;422;51.280;7.236;2024-02-21T03:44:56;27.17;;;11.20;;
870;SDS011;422;51.280;7.236;2024-02-21T03:47:23;20.80;;;11.30;;
870;SDS011;422;51.280;7.236;2024-02-21T03:49:52;20.70;;;11.57;;
870;SDS011;422;51.280;7.236;2024-02-21T03:52:19;18.27;;;11.90;;
870;SDS011;422;51.280;7.236;2024-02-21T03:54:46;21.57;;;10.67;;
870;SDS011;422;51.280;7.236;2024-02-21T03:57:14;18.10;;;10.13;;
870;SDS011;422;51.280;7.236;2024-02-21T03:59:42;23.33;;;10.70;;
870;SDS011;422;51.280;7.236;2024-02-21T04:02:09;23.67;;;11.70;;
870;SDS011;422;51.280;7.236;2024-02-21T04:04:37;21.50;;;11.47;;
870;SDS011;422;51.280;7.236;2024-02-21T04:07:06;14.87;;;10.00;;
870;SDS011;422;51.280;7.236;2024-02-21T04:09:33;16.50;;;10.70;;
870;SDS011;422;51.280;7.236;2024-02-21T04:12:01;20.13;;;10.70;;
870;SDS011;422;51.280;7.236;2024-02-21T04:14:28;23.07;;;10.53;;
870;SDS011;422;51.280;7.236;2024-02-21T04:16:55;24.33;;;10.90;;
870;SDS011;422;51.280;7.236;2024-02-21T04:19:22;20.17;;;10.60;;
870;SDS011;422;51.280;7.236;2024-02-21T04:21:50;16.43;;;10.87;;
870;SDS011;422;51.280;7.236;2024-02-21T04:24:18;19.90;;;10.80;;
870;SDS011;422;51.280;7.236;2024-02-21T04:26:45;15.50;;;10.07;;
870;SDS011;422;51.280;7.236;2024-02-21T04:29:13;19.63;;;10.07;;
870;SDS011;422;51.280;7.236;2024-02-21T04:31:40;14.77;;;8.83;;
870;SDS011;422;51.280;7.236;2024-02-21T04:34:07;17.17;;;10.73;;
870;SDS011;422;51.280;7.236;2024-02-21T04:36:34;15.60;;;9.23;;
870;SDS011;422;51.280;7.236;2024-02-21T04:39:01;15.83;;;9.63;;
870;SDS011;422;51.280;7.236;2024-02-21T04:41:30;15.00;;;10.03;;
870;SDS011;422;51.280;7.236;2024-02-21T04:43:58;18.07;;;8.83;;
870;SDS011;422;51.280;7.236;2024-02-21T04:46:25;15.33;;;10.13;;
870;SDS011;422;51.280;7.236;2024-02-21T04:48:52;14.40;;;8.50;;
870;SDS011;422;51.280;7.236;2024-02-21T04:51:19;13.37;;;8.47;;
870;SDS011;422;51.280;7.236;2024-02-21T04:53:47;17.00;;;9.07;;
870;SDS011;422;51.280;7.236;2024-02-21T04:56:14;13.67;;;9.00;;
870;SDS011;422;51.280;7.236;2024-02-21T04:58:42;23.43;;;9.97;;
870;SDS011;422;51.280;7.236;2024-02-21T05:01:10;15.50;;;9.53;;
870;SDS011;422;51.280;7.236;2024-02-21T05:03:38;17.70;;;8.83;;
870;SDS011;422;51.280;7.236;2024-02-21T05:06:05;13.20;;;8.90;;
870;SDS011;422;51.280;7.236;2024-02-21T05:08:32;13.37;;;8.90;;
870;SDS011;422;51.280;7.236;2024-02-21T05:11:00;20.00;;;10.90;;
870;SDS011;422;51.280;7.236;2024-02-21T05:13:28;12.23;;;8.07;;
870;SDS011;422;51.280;7.236;2024-02-21T05:15:56;13.87;;;8.00;;
870;SDS011;422;51.280;7.236;2024-02-21T05:18:26;15.70;;;8.33;;
870;SDS011;422;51.280;7.236;2024-02-21T05:20:53;17.67;;;9.43;;
870;SDS011;422;51.280;7.236;2024-02-21T05:23:21;15.67;;;8.63;;
870;SDS011;422;51.280;7.236;2024-02-21T05:25:48;11.40;;;7.87;;
870;SDS011;422;51.280;7.236;2024-02-21T05:28:15;15.20;;;8.60;;
870;SDS011;422;51.280;7.236;2024-02-21T05:30:43;12.00;;;7.60;;
870;SDS011;422;51.280;7.236;2024-02-21T05:33:11;20.53;;;9.63;;
870;SDS011;422;51.280;7.236;2024-02-21T05:35:46;12.33;;;7.57;;
870;SDS011;422;51.280;7.236;2024-02-21T05:38:13;13.67;;;8.30;;
870;SDS011;422;51.280;7.236;2024-02-21T05:40:41;13.13;;;8.17;;
870;SDS011;422;51.280;7.236;2024-02-21T05:43:08;22.83;;;8.97;;
870;SDS011;422;51.280;7.236;2024-02-21T05:45:36;13.90;;;8.63;;
870;SDS011;422;51.280;7.236;2024-02-21T05:48:03;16.40;;;9.20;;
870;SDS011;422;51.280;7.236;2024-02-21T05:50:33;15.43;;;8.23;;
870;SDS011;422;51.280;7.236;2024-02-21T05:53:00;11.80;;;8.63;;
870;SDS011;422;51.280;7.236;2024-02-21T05:55:28;12.30;;;8.83;;
870;SDS011;422;51.280;7.236;2024-02-21T05:57:55;13.47;;;7.87;;
870;SDS011;422;51.280;7.236;2024-02-21T06:00:23;10.40;;;7.47;;
870;SDS011;422;51.280;7.236;2024-02-21T06:02:50;10.80;;;7.27;;
870;SDS011;422;51.280;7.236;2024-02-21T06:05:17;9.90;;;7.00;;
870;SDS011;422;51.280;7.236;2024-02-21T06:07:46;15.03;;;7.40;;
870;SDS011;422;51.280;7.236;2024-02-21T06:10:13;15.60;;;9.00;;
870;SDS011;422;51.280;7.236;2024-02-21T06:12:41;12.60;;;7.03;;
870;SDS011;422;51.280;7.236;2024-02-21T06:15:09;13.23;;;7.20;;
870;SDS011;422;51.280;7.236;2024-02-21T06:17:36;15.30;;;7.80;;
870;SDS011;422;51.280;7.236;2024-02-21T06:20:04;11.40;;;7.10;;
870;SDS011;422;51.280;7.236;2024-02-21T06:22:32;11.70;;;7.07;;
870;SDS011;422;51.280;7.236;2024-02-21T06:25:00;13.93;;;7.33;;
870;SDS011;422;51.280;7.236;2024-02-21T06:27:28;14.83;;;7.40;;
870;SDS011;422;51.280;7.236;2024-02-21T06:29:55;11.70;;;6.77;;
870;SDS011;422;51.280;7.236;2024-02-21T06:32:22;16.00;;;8.10;;
870;SDS011;422;51.280;7.236;2024-02-21T06:34:50;18.60;;;9.40;;
870;SDS011;422;51.280;7.236;2024-02-21T06:37:17;13.57;;;7.83;;
870;SDS011;422;51.280;7.236;2024-02-21T06:39:45;15.40;;;7.83;;
870;SDS011;422;51.280;7.236;2024-02-21T06:42:13;12.50;;;8.30;;
870;SDS011;422;51.280;7.236;2024-02-21T06:44:41;15.97;;;8.80;;
870;SDS011;422;51.280;7.236;2024-02-21T06:47:08;13.97;;;7.60;;
870;SDS011;422;51.280;7.236;2024-02-21T06:49:35;15.60;;;8.60;;
870;SDS011;422;51.280;7.236;2024-02-21T06:52:03;16.57;;;8.80;;
870;SDS011;422;51.280;7.236;2024-02-21T06:54:31;13.80;;;7.83;;
870;SDS011;422;51.280;7.236;2024-02-21T06:56:59;13.10;;;8.20;;
870;SDS011;422;51.280;7.236;2024-02-21T06:59:28;16.90;;;7.70;;
870;SDS011;422;51.280;7.236;2024-02-21T07:01:55;18.07;;;7.20;;
870;SDS011;422;51.280;7.236;2024-02-21T07:04:23;12.10;;;7.40;;
870;SDS011;422;51.280;7.236;2024-02-21T07:06:50;13.93;;;7.40;;
870;SDS011;422;51.280;7.236;2024-02-21T07:09:17;14.17;;;7.80;;
870;SDS011;422;51.280;7.236;2024-02-21T07:11:45;11.30;;;7.27;;
870;SDS011;422;51.280;7.236;2024-02-21T07:14:13;13.83;;;8.13;;
870;SDS011;422;51.280;7.236;2024-02-21T07:16:42;15.53;;;8.03;;
870;SDS011;422;51.280;7.236;2024-02-21T07:19:09;14.57;;;9.20;;
870;SDS011;422;51.280;7.236;2024-02-21T07:21:37;14.13;;;9.30;;
870;SDS011;422;51.280;7.236;2024-02-21T07:24:07;17.53;;;9.40;;
870;SDS011;422;51.280;7.236;2024-02-21T07:26:34;17.63;;;9.27;;
870;SDS011;422;51.280;7.236;2024-02-21T07:29:01;12.90;;;8.77;;
870;SDS011;422;51.280;7.236;2024-02-21T07:31:29;17.90;;;9.93;;
870;SDS011;422;51.280;7.236;2024-02-21T07:33:57;14.10;;;8.10;;
870;SDS011;422;51.280;7.236;2024-02-21T07:36:27;13.23;;;8.07;;
870;SDS011;422;51.280;7.236;2024-02-21T07:38:55;16.67;;;9.13;;
870;SDS011;422;51.280;7.236;2024-02-21T07:41:23;13.30;;;7.30;;
870;SDS011;422;51.280;7.236;2024-02-21T07:43:50;10.20;;;8.03;;
870;SDS011;422;51.280;7.236;2024-02-21T07:46:18;12.53;;;7.20;;
870;SDS011;422;51.280;7.236;2024-02-21T07:48:45;14.30;;;6.67;;
870;SDS011;422;51.280;7.236;2024-02-21T07:51:14;13.93;;;7.67;;
870;SDS011;422;51.280;7.236;2024-02-21T07:53:43;11.43;;;6.50;;
870;SDS011;422;51.280;7.236;2024-02-21T07:56:11;11.33;;;7.27;;
870;SDS011;422;51.280;7.236;2024-02-21T07:58:39;9.37;;;6.13;;
870;SDS011;422;51.280;7.236;2024-02-21T08:01:07;7.83;;;6.17;;
870;SDS011;422;51.280;7.236;2024-02-21T08:03:34;12.03;;;6.73;;
870;SDS011;422;51.280;7.236;2024-02-21T08:06:02;13.47;;;6.13;;
870;SDS011;422;51.280;7.236;2024-02-21T08:08:31;12.63;;;6.40;;
870;SDS011;422;51.280;7.236;2024-02-21T08:10:59;9.43;;;6.23;;
870;SDS011;422;51.280;7.236;2024-02-21T08:13:26;10.33;;;5.90;;
870;SDS011;422;51.280;7.236;2024-02-21T08:15:54;13.63;;;6.07;;
870;SDS011;422;51.280;7.236;2024-02-21T08:18:22;10.10;;;6.47;;
870;SDS011;422;51.280;7.236;2024-02-21T08:20:49;13.53;;;6.93;;
870;SDS011;422;51.280;7.236;2024-02-21T08:23:18;12.07;;;6.60;;
870;SDS011;422;51.280;7.236;2024-02-21T08:25:47;10.20;;;6.23;;
870;SDS011;422;51.280;7.236;2024-02-21T08:28:14;13.30;;;6.90;;
870;SDS011;422;51.280;7.236;2024-02-21T08:30:42;11.13;;;7.13;;
870;SDS011;422;51.280;7.236;2024-02-21T08:33:13;10.43;;;6.70;;
870;SDS011;422;51.280;7.236;2024-02-21T08:35:41;11.50;;;7.60;;
870;SDS011;422;51.280;7.236;2024-02-21T08:38:09;15.57;;;9.70;;
870;SDS011;422;51.280;7.236;2024-02-21T08:40:36;11.40;;;7.67;;
870;SDS011;422;51.280;7.236;2024-02-21T08:43:05;16.20;;;10.00;;
870;SDS011;422;51.280;7.236;2024-02-21T08:45:32;23.00;;;9.37;;
870;SDS011;422;51.280;7.236;2024-02-21T08:48:00;16.93;;;8.30;;
870;SDS011;422;51.280;7.236;2024-02-21T08:50:27;14.00;;;9.23;;
870;SDS011;422;51.280;7.236;2024-02-21T08:52:55;16.40;;;9.17;;
870;SDS011;422;51.280;7.236;2024-02-21T08:55:22;12.20;;;8.70;;
870;SDS011;422;51.280;7.236;2024-02-21T08:57:50;13.90;;;8.57;;
870;SDS011;422;51.280;7.236;2024-02-21T09:00:19;11.60;;;7.20;;
870;SDS011;422;51.280;7.236;2024-02-21T09:02:52;10.97;;;7.00;;
870;SDS011;422;51.280;7.236;2024-02-21T09:05:21;10.50;;;6.50;;
870;SDS011;422;51.280;7.236;2024-02-21T09:07:49;11.87;;;6.70;;
870;SDS011;422;51.280;7.236;2024-02-21T09:10:17;11.37;;;7.10;;
870;SDS011;422;51.280;7.236;2024-02-21T09:12:44;14.80;;;7.90;;
870;SDS011;422;51.280;7.236;2024-02-21T09:15:12;8.47;;;6.57;;
870;SDS011;422;51.280;7.236;2024-02-21T09:17:42;13.03;;;6.80;;
870;SDS011;422;51.280;7.236;2024-02-21T09:20:09;11.40;;;6.33;;
870;SDS011;422;51.280;7.236;2024-02-21T09:22:41;10.37;;;7.00;;
870;SDS011;422;51.280;7.236;2024-02-21T09:25:09;12.83;;;6.33;;
870;SDS011;422;51.280;7.236;2024-02-21T09:27:37;9.20;;;5.90;;
870;SDS011;422;51.280;7.236;2024-02-21T09:30:05;13.80;;;6.60;;
870;SDS011;422;51.280;7.236;2024-02-21T09:32:33;12.60;;;7.43;;
870;SDS011;422;51.280;7.236;2024-02-21T09:35:03;12.37;;;6.70;;
870;SDS011;422;51.280;7.236;2024-02-21T09:37:31;12.23;;;6.60;;
870;SDS011;422;51.280;7.236;2024-02-21T09:39:59;12.70;;;5.73;;
870;SDS011;422;51.280;7.236;2024-02-21T09:42:29;10.77;;;6.53;;
870;SDS011;422;51.280;7.236;2024-02-21T09:45:05;13.43;;;6.63;;
870;SDS011;422;51.280;7.236;2024-02-21T09:47:40;13.00;;;6.50;;
870;SDS011;422;51.280;7.236;2024-02-21T09:50:18;13.90;;;8.00;;
870;SDS011;422;51.280;7.236;2024-02-21T09:52:48;8.40;;;6.20;;
870;SDS011;422;51.280;7.236;2024-02-21T09:55:16;11.90;;;6.10;;
870;SDS011;422;51.280;7.236;2024-02-21T09:57:45;13.47;;;6.30;;
870;SDS011;422;51.280;7.236;2024-02-21T10:00:13;12.17;;;7.40;;
870;SDS011;422;51.280;7.236;2024-02-21T10:02:46;8.83;;;6.03;;
870;SDS011;422;51.280;7.236;2024-02-21T10:05:14;14.50;;;6.03;;
870;SDS011;422;51.280;7.236;2024-02-21T10:07:44;10.03;;;5.90;;
870;SDS011;422;51.280;7.236;2024-02-21T10:10:11;11.77;;;7.30;;
870;SDS011;422;51.280;7.236;2024-02-21T10:12:47;11.37;;;5.63;;
870;SDS011;422;51.280;7.236;2024-02-21T10:15:19;12.57;;;6.30;;
870;SDS011;422;51.280;7.236;2024-02-21T10:17:49;14.33;;;7.77;;
870;SDS011;422;51.280;7.236;2024-02-21T10:20:16;12.63;;;6.60;;
870;SDS011;422;51.280;7.236;2024-02-21T10:22:45;9.93;;;6.00;;
870;SDS011;422;51.280;7.236;2024-02-21T10:25:13;15.90;;;7.20;;
870;SDS011;422;51.280;7.236;2024-02-21T10:27:41;13.37;;;6.30;;
870;SDS011;422;51.280;7.236;2024-02-21T10:30:13;15.63;;;7.20;;
870;SDS011;422;51.280;7.236;2024-02-21T10:32:48;11.90;;;6.57;;
870;SDS011;422;51.280;7.236;2024-02-21T10:35:25;10.70;;;6.67;;
870;SDS011;422;51.280;7.236;2024-02-21T10:37:56;13.97;;;7.57;;
870;SDS011;422;51.280;7.236;2024-02-21T10:40:23;13.30;;;6.97;;
870;SDS011;422;51.280;7.236;2024-02-21T10:42:53;10.97;;;6.23;;
870;SDS011;422;51.280;7.236;2024-02-21T10:45:27;8.23;;;6.50;;
870;SDS011;422;51.280;7.236;2024-02-21T10:48:01;13.87;;;6.93;;
870;SDS011;422;51.280;7.236;2024-02-21T10:50:39;11.90;;;7.00;;
870;SDS011;422;51.280;7.236;2024-02-21T10:53:18;10.70;;;6.73;;
870;SDS011;422;51.280;7.236;2024-02-21T10:55:52;15.50;;;6.67;;
870;SDS011;422;51.280;7.236;2024-02-21T10:58:28;10.97;;;5.80;;
870;SDS011;422;51.280;7.236;2024-02-21T11:00:57;13.80;;;6.57;;
870;SDS011;422;51.280;7.236;2024-02-21T11:03:25;9.83;;;6.90;;
870;SDS011;422;51.280;7.236;2024-02-21T11:05:52;13.53;;;6.23;;
870;SDS011;422;51.280;7.236;2024-02-21T11:08:21;11.50;;;6.53;;
870;SDS011;422;51.280;7.236;2024-02-21T11:10:50;15.70;;;6.37;;
870;SDS011;422;51.280;7.236;2024-02-21T11:13:17;9.03;;;5.90;;
870;SDS011;422;51.280;7.236;2024-02-21T11:15:45;11.37;;;6.40;;
870;SDS011;422;51.280;7.236;2024-02-21T11:18:22;11.40;;;5.80;;
870;SDS011;422;51.280;7.236;2024-02-21T11:20:50;10.33;;;5.53;;
870;SDS011;422;51.280;7.236;2024-02-21T11:23:25;9.27;;;5.67;;
870;SDS011;422;51.280;7.236;2024-02-21T11:25:59;10.03;;;6.00;;
870;SDS011;422;51.280;7.236;2024-02-21T11:28:31;11.17;;;5.43;;
870;SDS011;422;51.280;7.236;2024-02-21T11:31:06;11.20;;;5.63;;
870;SDS011;422;51.280;7.236;2024-02-21T11:33:34;12.37;;;5.10;;
870;SDS011;422;51.280;7.236;2024-02-21T11:36:04;9.30;;;5.27;;
870;SDS011;422;51.280;7.236;2024-02-21T11:38:33;9.37;;;4.83;;
870;SDS011;422;51.280;7.236;2024-02-21T11:41:00;10.13;;;4.57;;
870;SDS011;422;51.280;7.236;2024-02-21T11:43:28;10.87;;;4.77;;
870;SDS011;422;51.280;7.236;2024-02-21T11:45:59;11.40;;;5.47;;
870;SDS011;422;51.280;7.236;2024-02-21T11:48:28;9.10;;;5.33;;
870;SDS011;422;51.280;7.236;2024-02-21T11:50:56;12.87;;;5.00;;
870;SDS011;422;51.280;7.236;2024-02-21T11:53:26;11.17;;;6.17;;
870;SDS011;422;51.280;7.236;2024-02-21T11:55:57;7.80;;;5.20;;
870;SDS011;422;51.280;7.236;2024-02-21T11:58:25;7.63;;;5.03;;
870;SDS011;422;51.280;7.236;2024-02-21T12:00:52;9.60;;;5.17;;
870;SDS011;422;51.280;7.236;2024-02-21T12:03:20;11.47;;;4.97;;
870;SDS011;422;51.280;7.236;2024-02-21T12:05:48;9.90;;;4.67;;
870;SDS011;422;51.280;7.236;2024-02-21T12:08:16;12.10;;;5.03;;
870;SDS011;422;51.280;7.236;2024-02-21T12:10:44;9.53;;;4.80;;
870;SDS011;422;51.280;7.236;2024-02-21T12:13:17;9.97;;;5.43;;
870;SDS011;422;51.280;7.236;2024-02-21T12:15:50;13.60;;;5.07;;
870;SDS011;422;51.280;7.236;2024-02-21T12:18:17;7.97;;;4.70;;
870;SDS011;422;51.280;7.236;2024-02-21T12:20:47;10.20;;;4.50;;
870;SDS011;422;51.280;7.236;2024-02-21T12:23:18;9.40;;;5.23;;
870;SDS011;422;51.280;7.236;2024-02-21T12:25:45;7.60;;;4.10;;
870;SDS011;422;51.280;7.236;2024-02-21T12:28:13;8.20;;;4.77;;
870;SDS011;422;51.280;7.236;2024-02-21T12:30:45;11.20;;;5.17;;
870;SDS011;422;51.280;7.236;2024-02-21T12:33:12;11.60;;;5.20;;
870;SDS011;422;51.280;7.236;2024-02-21T12:35:40;8.50;;;5.40;;
870;SDS011;422;51.280;7.236;2024-02-21T12:38:08;8.30;;;4.33;;
870;SDS011;422;51.280;7.236;2024-02-21T12:40:36;9.00;;;4.90;;
870;SDS011;422;51.280;7.236;2024-02-21T12:43:04;9.00;;;4.30;;
870;SDS011;422;51.280;7.236;2024-02-21T12:45:32;11.30;;;6.07;;
870;SDS011;422;51.280;7.236;2024-02-21T12:48:01;10.10;;;4.73;;
870;SDS011;422;51.280;7.236;2024-02-21T12:50:30;7.27;;;4.70;;
870;SDS011;422;51.280;7.236;2024-02-21T12:52:57;7.90;;;5.10;;
870;SDS011;422;51.280;7.236;2024-02-21T12:55:25;10.60;;;4.43;;
870;SDS011;422;51.280;7.236;2024-02-21T12:57:53;7.70;;;4.90;;
870;SDS011;422;51.280;7.236;2024-02-21T13:00:20;11.10;;;4.77;;
870;SDS011;422;51.280;7.236;2024-02-21T13:02:51;9.90;;;5.13;;
870;SDS011;422;51.280;7.236;2024-02-21T13:05:21;5.87;;;4.10;;
870;SDS011;422;51.280;7.236;2024-02-21T13:07:49;11.63;;;4.17;;
870;SDS011;422;51.280;7.236;2024-02-21T13:10:17;11.37;;;4.77;;
870;SDS011;422;51.280;7.236;2024-02-21T13:12:45;12.90;;;5.20;;
870;SDS011;422;51.280;7.236;2024-02-21T13:15:12;9.97;;;5.73;;
870;SDS011;422;51.280;7.236;2024-02-21T13:17:41;9.20;;;5.40;;
870;SDS011;422;51.280;7.236;2024-02-21T13:20:10;7.83;;;4.53;;
870;SDS011;422;51.280;7.236;2024-02-21T13:22:39;8.30;;;6.10;;
870;SDS011;422;51.280;7.236;2024-02-21T13:25:07;9.03;;;4.83;;
870;SDS011;422;51.280;7.236;2024-02-21T13:27:35;9.53;;;5.23;;
870;SDS011;422;51.280;7.236;2024-02-21T13:30:03;11.70;;;4.60;;
870;SDS011;422;51.280;7.236;2024-02-21T13:32:34;8.80;;;5.40;;
870;SDS011;422;51.280;7.236;2024-02-21T13:35:01;9.70;;;4.67;;
870;SDS011;422;51.280;7.236;2024-02-21T13:37:30;9.37;;;4.53;;
870;SDS011;422;51.280;7.236;2024-02-21T13:40:01;6.60;;;4.90;;
870;SDS011;422;51.280;7.236;2024-02-21T13:42:28;7.60;;;4.40;;
870;SDS011;422;51.280;7.236;2024-02-21T13:44:57;8.73;;;5.10;;
870;SDS011;422;51.280;7.236;2024-02-21T13:47:25;11.30;;;4.87;;
870;SDS011;422;51.280;7.236;2024-02-21T13:49:52;9.90;;;5.30;;
870;SDS011;422;51.280;7.236;2024-02-21T13:52:20;7.20;;;4.27;;
870;SDS011;422;51.280;7.236;2024-02-21T13:54:51;7.20;;;4.90;;
870;SDS011;422;51.280;7.236;2024-02-21T13:57:20;9.13;;;4.87;;
870;SDS011;422;51.280;7.236;2024-02-21T13:59:48;10.17;;;5.47;;
870;SDS011;422;51.280;7.236;2024-02-21T14:02:16;11.30;;;4.97;;
870;SDS011;422;51.280;7.236;2024-02-21T14:04:43;11.40;;;4.83;;
870;SDS011;422;51.280;7.236;2024-02-21T14:07:11;29.80;;;15.03;;
870;SDS011;422;51.280;7.236;2024-02-21T14:09:38;10.97;;;6.17;;
870;SDS011;422;51.280;7.236;2024-02-21T14:12:06;15.70;;;8.93;;
870;SDS011;422;51.280;7.236;2024-02-21T14:14:36;10.63;;;6.43;;
870;SDS011;422;51.280;7.236;2024-02-21T14:17:04;14.90;;;7.40;;
870;SDS011;422;51.280;7.236;2024-02-21T14:19:32;11.33;;;5.60;;
870;SDS011;422;51.280;7.236;2024-02-21T14:21:59;9.10;;;6.33;;
870;SDS011;422;51.280;7.236;2024-02-21T14:24:28;7.93;;;5.13;;
870;SDS011;422;51.280;7.236;2024-02-21T14:26:55;11.63;;;5.87;;
870;SDS011;422;51.280;7.236;2024-02-21T14:29:23;11.63;;;5.30;;
870;SDS011;422;51.280;7.236;2024-02-21T14:31:52;16.17;;;6.10;;
870;SDS011;422;51.280;7.236;2024-02-21T14:34:19;10.00;;;5.30;;
870;SDS011;422;51.280;7.236;2024-02-21T14:36:47;9.73;;;4.63;;
870;SDS011;422;51.280;7.236;2024-02-21T14:39:16;7.97;;;4.23;;
870;SDS011;422;51.280;7.236;2024-02-21T14:41:44;7.70;;;4.70;;
870;SDS011;422;51.280;7.236;2024-02-21T14:44:11;7.97;;;4.00;;
870;SDS011;422;51.280;7.236;2024-02-21T14:46:39;6.10;;;4.40;;
870;SDS011;422;51.280;7.236;2024-02-21T14:49:08;6.70;;;4.20;;
870;SDS011;422;51.280;7.236;2024-02-21T14:51:37;9.90;;;4.40;;
870;SDS011;422;51.280;7.236;2024-02-21T14:54:04;8.40;;;4.37;;
870;SDS011;422;51.280;7.236;2024-02-21T14:56:32;8.73;;;4.40;;
870;SDS011;422;51.280;7.236;2024-02-21T14:58:59;9.30;;;4.33;;
870;SDS011;422;51.280;7.236;2024-02-21T15:01:27;7.10;;;3.50;;
870;SDS011;422;51.280;7.236;2024-02-21T15:03:55;8.57;;;4.60;;
870;SDS011;422;51.280;7.236;2024-02-21T15:06:24;10.33;;;4.20;;
870;SDS011;422;51.280;7.236;2024-02-21T15:08:55;7.60;;;3.90;;
870;SDS011;422;51.280;7.236;2024-02-21T15:11:22;12.33;;;3.73;;
870;SDS011;422;51.280;7.236;2024-02-21T15:13:51;10.00;;;4.17;;
870;SDS011;422;51.280;7.236;2024-02-21T15:16:20;8.93;;;4.40;;
870;SDS011;422;51.280;7.236;2024-02-21T15:18:48;8.67;;;3.87;;
870;SDS011;422;51.280;7.236;2024-02-21T15:21:16;7.53;;;4.80;;
870;SDS011;422;51.280;7.236;2024-02-21T15:23:46;8.97;;;3.60;;
870;SDS011;422;51.280;7.236;2024-02-21T15:26:14;6.63;;;4.63;;
870;SDS011;422;51.280;7.236;2024-02-21T15:28:43;8.07;;;3.73;;
870;SDS011;422;51.280;7.236;2024-02-21T15:31:19;6.57;;;3.87;;
870;SDS011;422;51.280;7.236;2024-02-21T15:33:48;9.30;;;3.40;;